sensor_id;sensor_type;location;lat;lon;timestamp;P1;durP1;ratioP1;P2;durP2;ratioP2
39102;SDS011;24847;48.218;16.414;2022-10-16T00:04:49;19.10;;;17.13;;
39102;SDS011;24847;48.218;16.414;2022-10-16T00:09:51;18.70;;;16.85;;
39102;SDS011;24847;48.218;16.414;2022-10-16T00:14:55;18.30;;;16.42;;
39102;SDS011;24847;48.218;16.414;2022-10-16T00:20:00;19.90;;;16.75;;
39102;SDS011;24847;48.218;16.414;2022-10-16T00:25:03;18.73;;;16.48;;
39102;SDS011;24847;48.218;16.414;2022-10-16T00:30:08;19.25;;;17.27;;
39102;SDS011;24847;48.218;16.414;2022-10-16T00:35:11;18.33;;;16.40;;
39102;SDS011;24847;48.218;16.414;2022-10-16T00:40:19;19.10;;;17.02;;
39102;SDS011;24847;48.218;16.414;2022-10-16T00:45:26;19.00;;;16.95;;
39102;SDS011;24847;48.218;16.414;2022-10-16T00:50:30;19.17;;;17.23;;
39102;SDS011;24847;48.218;16.414;2022-10-16T00:55:34;18.25;;;16.30;;
39102;SDS011;24847;48.218;16.414;2022-10-16T01:00:38;17.77;;;15.95;;
39102;SDS011;24847;48.218;16.414;2022-10-16T01:05:42;17.23;;;15.43;;
39102;SDS011;24847;48.218;16.414;2022-10-16T01:10:54;18.27;;;15.88;;
39102;SDS011;24847;48.218;16.414;2022-10-16T01:16:05;17.27;;;15.45;;
39102;SDS011;24847;48.218;16.414;2022-10-16T01:21:15;18.08;;;16.13;;
39102;SDS011;24847;48.218;16.414;2022-10-16T01:26:31;15.20;;;13.63;;
39102;SDS011;24847;48.218;16.414;2022-10-16T01:32:09;16.33;;;14.63;;
39102;SDS011;24847;48.218;16.414;2022-10-16T01:37:22;14.60;;;13.13;;
39102;SDS011;24847;48.218;16.414;2022-10-16T01:42:34;14.82;;;13.30;;
39102;SDS011;24847;48.218;16.414;2022-10-16T01:47:40;14.68;;;13.25;;
39102;SDS011;24847;48.218;16.414;2022-10-16T01:52:45;14.80;;;13.40;;
39102;SDS011;24847;48.218;16.414;2022-10-16T01:57:50;15.52;;;13.93;;
39102;SDS011;24847;48.218;16.414;2022-10-16T02:02:58;15.18;;;13.75;;
39102;SDS011;24847;48.218;16.414;2022-10-16T02:08:04;15.35;;;13.88;;
39102;SDS011;24847;48.218;16.414;2022-10-16T02:13:07;14.70;;;13.27;;
39102;SDS011;24847;48.218;16.414;2022-10-16T02:18:16;15.35;;;13.82;;
39102;SDS011;24847;48.218;16.414;2022-10-16T02:23:19;16.10;;;14.43;;
39102;SDS011;24847;48.218;16.414;2022-10-16T02:28:32;15.95;;;14.25;;
39102;SDS011;24847;48.218;16.414;2022-10-16T02:33:43;17.08;;;15.23;;
39102;SDS011;24847;48.218;16.414;2022-10-16T02:38:48;15.70;;;14.13;;
39102;SDS011;24847;48.218;16.414;2022-10-16T02:43:50;17.15;;;15.40;;
39102;SDS011;24847;48.218;16.414;2022-10-16T02:48:59;17.33;;;15.25;;
39102;SDS011;24847;48.218;16.414;2022-10-16T02:54:02;16.95;;;15.18;;
39102;SDS011;24847;48.218;16.414;2022-10-16T02:59:05;16.23;;;14.65;;
39102;SDS011;24847;48.218;16.414;2022-10-16T03:04:09;17.17;;;15.40;;
39102;SDS011;24847;48.218;16.414;2022-10-16T03:09:11;18.33;;;16.02;;
39102;SDS011;24847;48.218;16.414;2022-10-16T03:14:14;17.75;;;15.90;;
39102;SDS011;24847;48.218;16.414;2022-10-16T03:19:19;16.98;;;15.30;;
39102;SDS011;24847;48.218;16.414;2022-10-16T03:24:22;16.25;;;14.48;;
39102;SDS011;24847;48.218;16.414;2022-10-16T03:29:24;16.60;;;14.85;;
39102;SDS011;24847;48.218;16.414;2022-10-16T03:34:29;17.08;;;14.77;;
39102;SDS011;24847;48.218;16.414;2022-10-16T03:39:31;17.48;;;15.65;;
39102;SDS011;24847;48.218;16.414;2022-10-16T03:44:33;16.27;;;14.63;;
39102;SDS011;24847;48.218;16.414;2022-10-16T03:49:38;17.23;;;15.00;;
39102;SDS011;24847;48.218;16.414;2022-10-16T03:54:40;17.30;;;14.75;;
39102;SDS011;24847;48.218;16.414;2022-10-16T03:59:42;16.30;;;14.70;;
39102;SDS011;24847;48.218;16.414;2022-10-16T04:04:46;15.43;;;13.82;;
39102;SDS011;24847;48.218;16.414;2022-10-16T04:09:48;16.73;;;14.98;;
39102;SDS011;24847;48.218;16.414;2022-10-16T04:14:52;15.38;;;13.82;;
39102;SDS011;24847;48.218;16.414;2022-10-16T04:19:55;15.52;;;14.02;;
39102;SDS011;24847;48.218;16.414;2022-10-16T04:24:58;15.52;;;13.90;;
39102;SDS011;24847;48.218;16.414;2022-10-16T04:30:03;15.10;;;13.57;;
39102;SDS011;24847;48.218;16.414;2022-10-16T04:35:08;13.57;;;12.15;;
39102;SDS011;24847;48.218;16.414;2022-10-16T04:40:10;14.45;;;13.02;;
39102;SDS011;24847;48.218;16.414;2022-10-16T04:45:13;14.32;;;12.82;;
39102;SDS011;24847;48.218;16.414;2022-10-16T04:50:20;13.35;;;12.00;;
39102;SDS011;24847;48.218;16.414;2022-10-16T04:55:22;17.33;;;15.38;;
39102;SDS011;24847;48.218;16.414;2022-10-16T05:00:27;13.48;;;12.18;;
39102;SDS011;24847;48.218;16.414;2022-10-16T05:05:31;13.40;;;12.00;;
39102;SDS011;24847;48.218;16.414;2022-10-16T05:10:33;14.13;;;12.75;;
39102;SDS011;24847;48.218;16.414;2022-10-16T05:15:38;13.80;;;12.38;;
39102;SDS011;24847;48.218;16.414;2022-10-16T05:20:42;16.25;;;13.80;;
39102;SDS011;24847;48.218;16.414;2022-10-16T05:25:51;19.85;;;14.75;;
39102;SDS011;24847;48.218;16.414;2022-10-16T05:30:55;17.92;;;14.05;;
39102;SDS011;24847;48.218;16.414;2022-10-16T05:36:01;17.35;;;13.27;;
39102;SDS011;24847;48.218;16.414;2022-10-16T05:41:04;41.95;;;29.10;;
39102;SDS011;24847;48.218;16.414;2022-10-16T05:46:07;29.08;;;21.23;;
39102;SDS011;24847;48.218;16.414;2022-10-16T05:51:11;32.47;;;25.00;;
39102;SDS011;24847;48.218;16.414;2022-10-16T05:56:18;23.55;;;17.92;;
39102;SDS011;24847;48.218;16.414;2022-10-16T06:01:20;24.90;;;16.63;;
39102;SDS011;24847;48.218;16.414;2022-10-16T06:06:26;23.42;;;15.77;;
39102;SDS011;24847;48.218;16.414;2022-10-16T06:11:33;25.48;;;17.13;;
39102;SDS011;24847;48.218;16.414;2022-10-16T06:16:36;26.95;;;17.52;;
39102;SDS011;24847;48.218;16.414;2022-10-16T06:21:46;25.35;;;17.92;;
39102;SDS011;24847;48.218;16.414;2022-10-16T06:26:51;27.20;;;18.08;;
39102;SDS011;24847;48.218;16.414;2022-10-16T06:31:54;29.23;;;18.83;;
39102;SDS011;24847;48.218;16.414;2022-10-16T06:36:58;24.17;;;17.30;;
39102;SDS011;24847;48.218;16.414;2022-10-16T06:42:04;30.40;;;18.27;;
39102;SDS011;24847;48.218;16.414;2022-10-16T06:47:06;37.50;;;18.15;;
39102;SDS011;24847;48.218;16.414;2022-10-16T06:52:09;30.73;;;18.52;;
39102;SDS011;24847;48.218;16.414;2022-10-16T06:57:13;33.88;;;18.88;;
39102;SDS011;24847;48.218;16.414;2022-10-16T07:02:16;44.17;;;28.85;;
39102;SDS011;24847;48.218;16.414;2022-10-16T07:07:19;30.33;;;23.52;;
39102;SDS011;24847;48.218;16.414;2022-10-16T07:12:25;28.63;;;21.42;;
39102;SDS011;24847;48.218;16.414;2022-10-16T07:17:27;24.77;;;19.42;;
39102;SDS011;24847;48.218;16.414;2022-10-16T07:22:32;26.13;;;20.05;;
39102;SDS011;24847;48.218;16.414;2022-10-16T07:27:35;30.25;;;22.15;;
39102;SDS011;24847;48.218;16.414;2022-10-16T07:32:37;28.25;;;20.98;;
39102;SDS011;24847;48.218;16.414;2022-10-16T07:37:43;72.40;;;52.45;;
39102;SDS011;24847;48.218;16.414;2022-10-16T07:42:48;37.50;;;27.30;;
39102;SDS011;24847;48.218;16.414;2022-10-16T07:47:50;33.58;;;25.55;;
39102;SDS011;24847;48.218;16.414;2022-10-16T07:52:54;30.20;;;24.27;;
39102;SDS011;24847;48.218;16.414;2022-10-16T07:57:56;34.80;;;26.13;;
39102;SDS011;24847;48.218;16.414;2022-10-16T08:02:59;29.85;;;23.63;;
39102;SDS011;24847;48.218;16.414;2022-10-16T08:08:03;35.78;;;24.42;;
39102;SDS011;24847;48.218;16.414;2022-10-16T08:13:09;33.33;;;25.05;;
39102;SDS011;24847;48.218;16.414;2022-10-16T08:18:11;32.97;;;23.02;;
39102;SDS011;24847;48.218;16.414;2022-10-16T08:23:18;28.05;;;23.02;;
39102;SDS011;24847;48.218;16.414;2022-10-16T08:28:20;28.30;;;22.65;;
39102;SDS011;24847;48.218;16.414;2022-10-16T08:33:23;33.25;;;26.55;;
39102;SDS011;24847;48.218;16.414;2022-10-16T08:38:28;31.65;;;24.05;;
39102;SDS011;24847;48.218;16.414;2022-10-16T08:43:34;27.40;;;23.05;;
39102;SDS011;24847;48.218;16.414;2022-10-16T08:48:56;27.92;;;23.05;;
39102;SDS011;24847;48.218;16.414;2022-10-16T08:54:03;26.40;;;22.77;;
39102;SDS011;24847;48.218;16.414;2022-10-16T08:59:10;25.08;;;21.60;;
39102;SDS011;24847;48.218;16.414;2022-10-16T09:09:56;25.20;;;21.30;;
39102;SDS011;24847;48.218;16.414;2022-10-16T09:15:17;26.05;;;21.77;;
39102;SDS011;24847;48.218;16.414;2022-10-16T09:20:32;25.80;;;20.95;;
39102;SDS011;24847;48.218;16.414;2022-10-16T09:25:42;32.88;;;26.00;;
39102;SDS011;24847;48.218;16.414;2022-10-16T09:30:49;31.05;;;25.10;;
39102;SDS011;24847;48.218;16.414;2022-10-16T09:35:54;35.55;;;27.02;;
39102;SDS011;24847;48.218;16.414;2022-10-16T09:41:00;30.40;;;24.30;;
39102;SDS011;24847;48.218;16.414;2022-10-16T09:46:21;29.95;;;24.15;;
39102;SDS011;24847;48.218;16.414;2022-10-16T09:51:29;30.30;;;24.30;;
39102;SDS011;24847;48.218;16.414;2022-10-16T09:56:36;29.95;;;24.02;;
39102;SDS011;24847;48.218;16.414;2022-10-16T10:01:40;28.70;;;23.70;;
39102;SDS011;24847;48.218;16.414;2022-10-16T10:06:52;30.27;;;25.58;;
39102;SDS011;24847;48.218;16.414;2022-10-16T10:11:57;44.92;;;35.50;;
39102;SDS011;24847;48.218;16.414;2022-10-16T10:17:12;38.72;;;31.17;;
39102;SDS011;24847;48.218;16.414;2022-10-16T10:22:28;37.15;;;31.02;;
39102;SDS011;24847;48.218;16.414;2022-10-16T10:27:36;32.00;;;26.98;;
39102;SDS011;24847;48.218;16.414;2022-10-16T10:32:52;29.10;;;25.50;;
39102;SDS011;24847;48.218;16.414;2022-10-16T10:38:16;27.27;;;24.30;;
39102;SDS011;24847;48.218;16.414;2022-10-16T10:43:37;28.60;;;24.02;;
39102;SDS011;24847;48.218;16.414;2022-10-16T10:54:25;26.38;;;23.50;;
39102;SDS011;24847;48.218;16.414;2022-10-16T10:59:43;24.23;;;21.63;;
39102;SDS011;24847;48.218;16.414;2022-10-16T11:05:14;24.17;;;21.75;;
39102;SDS011;24847;48.218;16.414;2022-10-16T11:10:28;25.35;;;22.70;;
39102;SDS011;24847;48.218;16.414;2022-10-16T11:15:44;23.52;;;20.98;;
39102;SDS011;24847;48.218;16.414;2022-10-16T11:20:51;24.38;;;21.85;;
39102;SDS011;24847;48.218;16.414;2022-10-16T11:25:56;24.83;;;22.27;;
39102;SDS011;24847;48.218;16.414;2022-10-16T11:31:05;25.90;;;22.60;;
39102;SDS011;24847;48.218;16.414;2022-10-16T11:36:17;24.38;;;21.85;;
39102;SDS011;24847;48.218;16.414;2022-10-16T11:41:27;26.45;;;23.65;;
39102;SDS011;24847;48.218;16.414;2022-10-16T11:46:36;24.52;;;22.15;;
39102;SDS011;24847;48.218;16.414;2022-10-16T11:51:48;24.75;;;22.25;;
39102;SDS011;24847;48.218;16.414;2022-10-16T11:57:03;24.83;;;22.23;;
39102;SDS011;24847;48.218;16.414;2022-10-16T12:02:26;25.40;;;22.80;;
39102;SDS011;24847;48.218;16.414;2022-10-16T12:07:41;24.73;;;22.13;;
39102;SDS011;24847;48.218;16.414;2022-10-16T12:12:54;23.88;;;21.45;;
39102;SDS011;24847;48.218;16.414;2022-10-16T12:17:59;24.77;;;22.25;;
39102;SDS011;24847;48.218;16.414;2022-10-16T12:23:02;26.02;;;22.80;;
39102;SDS011;24847;48.218;16.414;2022-10-16T12:28:16;25.48;;;22.83;;
39102;SDS011;24847;48.218;16.414;2022-10-16T12:33:24;25.27;;;22.88;;
39102;SDS011;24847;48.218;16.414;2022-10-16T12:38:35;26.75;;;23.90;;
39102;SDS011;24847;48.218;16.414;2022-10-16T12:43:40;38.67;;;34.60;;
39102;SDS011;24847;48.218;16.414;2022-10-16T12:48:46;30.50;;;27.30;;
39102;SDS011;24847;48.218;16.414;2022-10-16T12:53:59;27.20;;;24.45;;
39102;SDS011;24847;48.218;16.414;2022-10-16T12:59:04;25.13;;;22.48;;
39102;SDS011;24847;48.218;16.414;2022-10-16T13:04:40;29.42;;;23.63;;
39102;SDS011;24847;48.218;16.414;2022-10-16T13:10:26;27.33;;;24.45;;
39102;SDS011;24847;48.218;16.414;2022-10-16T13:15:40;27.48;;;24.77;;
39102;SDS011;24847;48.218;16.414;2022-10-16T13:21:02;26.20;;;23.38;;
39102;SDS011;24847;48.218;16.414;2022-10-16T13:26:21;28.30;;;25.20;;
39102;SDS011;24847;48.218;16.414;2022-10-16T13:31:39;28.55;;;25.65;;
39102;SDS011;24847;48.218;16.414;2022-10-16T13:36:47;29.10;;;26.13;;
39102;SDS011;24847;48.218;16.414;2022-10-16T13:42:03;28.55;;;25.65;;
39102;SDS011;24847;48.218;16.414;2022-10-16T13:47:14;26.60;;;24.00;;
39102;SDS011;24847;48.218;16.414;2022-10-16T13:52:25;25.58;;;23.02;;
39102;SDS011;24847;48.218;16.414;2022-10-16T13:57:28;27.27;;;24.45;;
39102;SDS011;24847;48.218;16.414;2022-10-16T14:02:31;25.55;;;22.73;;
39102;SDS011;24847;48.218;16.414;2022-10-16T14:07:38;24.92;;;22.48;;
39102;SDS011;24847;48.218;16.414;2022-10-16T14:12:43;24.77;;;22.20;;
39102;SDS011;24847;48.218;16.414;2022-10-16T14:17:56;24.70;;;22.30;;
39102;SDS011;24847;48.218;16.414;2022-10-16T14:23:02;23.63;;;21.17;;
39102;SDS011;24847;48.218;16.414;2022-10-16T14:28:19;22.45;;;20.13;;
39102;SDS011;24847;48.218;16.414;2022-10-16T14:33:24;22.67;;;20.48;;
39102;SDS011;24847;48.218;16.414;2022-10-16T14:38:35;21.25;;;19.05;;
39102;SDS011;24847;48.218;16.414;2022-10-16T14:43:40;23.35;;;20.95;;
39102;SDS011;24847;48.218;16.414;2022-10-16T14:48:53;21.50;;;19.20;;
39102;SDS011;24847;48.218;16.414;2022-10-16T14:54:05;21.48;;;19.30;;
39102;SDS011;24847;48.218;16.414;2022-10-16T14:59:17;22.90;;;19.98;;
39102;SDS011;24847;48.218;16.414;2022-10-16T15:04:26;19.70;;;17.70;;
39102;SDS011;24847;48.218;16.414;2022-10-16T15:09:29;21.38;;;18.58;;
39102;SDS011;24847;48.218;16.414;2022-10-16T15:14:32;20.30;;;18.17;;
39102;SDS011;24847;48.218;16.414;2022-10-16T15:19:35;20.17;;;18.10;;
39102;SDS011;24847;48.218;16.414;2022-10-16T15:24:39;19.85;;;17.75;;
39102;SDS011;24847;48.218;16.414;2022-10-16T15:29:42;19.90;;;17.65;;
39102;SDS011;24847;48.218;16.414;2022-10-16T15:34:47;19.10;;;17.13;;
39102;SDS011;24847;48.218;16.414;2022-10-16T15:39:51;19.48;;;17.50;;
39102;SDS011;24847;48.218;16.414;2022-10-16T15:44:54;18.42;;;16.60;;
39102;SDS011;24847;48.218;16.414;2022-10-16T15:49:58;18.58;;;16.58;;
39102;SDS011;24847;48.218;16.414;2022-10-16T15:55:02;16.98;;;15.27;;
39102;SDS011;24847;48.218;16.414;2022-10-16T16:00:06;18.30;;;16.42;;
39102;SDS011;24847;48.218;16.414;2022-10-16T16:05:10;18.35;;;16.42;;
39102;SDS011;24847;48.218;16.414;2022-10-16T16:10:15;22.02;;;17.70;;
39102;SDS011;24847;48.218;16.414;2022-10-16T16:15:18;20.23;;;17.58;;
39102;SDS011;24847;48.218;16.414;2022-10-16T16:20:22;18.13;;;16.27;;
39102;SDS011;24847;48.218;16.414;2022-10-16T16:25:30;19.05;;;17.15;;
39102;SDS011;24847;48.218;16.414;2022-10-16T16:30:33;18.30;;;16.40;;
39102;SDS011;24847;48.218;16.414;2022-10-16T16:35:35;19.25;;;17.23;;
39102;SDS011;24847;48.218;16.414;2022-10-16T16:40:39;20.48;;;18.35;;
39102;SDS011;24847;48.218;16.414;2022-10-16T16:45:41;19.48;;;17.42;;
39102;SDS011;24847;48.218;16.414;2022-10-16T16:50:45;19.52;;;17.58;;
39102;SDS011;24847;48.218;16.414;2022-10-16T16:55:51;26.60;;;21.67;;
39102;SDS011;24847;48.218;16.414;2022-10-16T17:00:58;21.35;;;19.05;;
39102;SDS011;24847;48.218;16.414;2022-10-16T17:06:05;22.65;;;20.25;;
39102;SDS011;24847;48.218;16.414;2022-10-16T17:11:15;19.63;;;17.58;;
39102;SDS011;24847;48.218;16.414;2022-10-16T17:16:21;19.63;;;17.63;;
39102;SDS011;24847;48.218;16.414;2022-10-16T17:21:26;21.42;;;17.23;;
39102;SDS011;24847;48.218;16.414;2022-10-16T17:26:34;18.58;;;16.45;;
39102;SDS011;24847;48.218;16.414;2022-10-16T17:31:40;19.00;;;16.38;;
39102;SDS011;24847;48.218;16.414;2022-10-16T17:36:47;19.40;;;16.13;;
39102;SDS011;24847;48.218;16.414;2022-10-16T17:41:53;19.80;;;17.75;;
39102;SDS011;24847;48.218;16.414;2022-10-16T17:46:56;19.63;;;17.63;;
39102;SDS011;24847;48.218;16.414;2022-10-16T17:52:00;23.60;;;20.90;;
39102;SDS011;24847;48.218;16.414;2022-10-16T17:57:10;18.95;;;17.02;;
39102;SDS011;24847;48.218;16.414;2022-10-16T18:02:15;19.65;;;17.58;;
39102;SDS011;24847;48.218;16.414;2022-10-16T18:07:19;20.42;;;17.73;;
39102;SDS011;24847;48.218;16.414;2022-10-16T18:12:28;19.00;;;17.05;;
39102;SDS011;24847;48.218;16.414;2022-10-16T18:17:33;23.67;;;21.15;;
39102;SDS011;24847;48.218;16.414;2022-10-16T18:22:45;18.80;;;16.80;;
39102;SDS011;24847;48.218;16.414;2022-10-16T18:27:50;19.60;;;17.38;;
39102;SDS011;24847;48.218;16.414;2022-10-16T18:32:57;19.37;;;17.10;;
39102;SDS011;24847;48.218;16.414;2022-10-16T18:38:00;20.38;;;18.25;;
39102;SDS011;24847;48.218;16.414;2022-10-16T18:43:06;21.92;;;17.83;;
39102;SDS011;24847;48.218;16.414;2022-10-16T18:48:10;19.50;;;17.02;;
39102;SDS011;24847;48.218;16.414;2022-10-16T18:53:13;19.40;;;17.40;;
39102;SDS011;24847;48.218;16.414;2022-10-16T18:58:22;19.38;;;16.63;;
39102;SDS011;24847;48.218;16.414;2022-10-16T19:03:26;24.45;;;21.00;;
39102;SDS011;24847;48.218;16.414;2022-10-16T19:08:34;19.75;;;17.65;;
39102;SDS011;24847;48.218;16.414;2022-10-16T19:13:40;18.38;;;16.48;;
39102;SDS011;24847;48.218;16.414;2022-10-16T19:18:44;18.92;;;16.95;;
39102;SDS011;24847;48.218;16.414;2022-10-16T19:23:50;19.45;;;17.45;;
39102;SDS011;24847;48.218;16.414;2022-10-16T19:28:55;19.38;;;17.38;;
39102;SDS011;24847;48.218;16.414;2022-10-16T19:34:00;19.75;;;17.70;;
39102;SDS011;24847;48.218;16.414;2022-10-16T19:39:10;19.30;;;17.27;;
39102;SDS011;24847;48.218;16.414;2022-10-16T19:44:16;19.50;;;17.42;;
39102;SDS011;24847;48.218;16.414;2022-10-16T19:49:19;19.13;;;17.08;;
39102;SDS011;24847;48.218;16.414;2022-10-16T19:54:25;21.17;;;18.50;;
39102;SDS011;24847;48.218;16.414;2022-10-16T19:59:31;20.13;;;17.98;;
39102;SDS011;24847;48.218;16.414;2022-10-16T20:04:34;22.58;;;17.50;;
39102;SDS011;24847;48.218;16.414;2022-10-16T20:09:37;19.60;;;17.60;;
39102;SDS011;24847;48.218;16.414;2022-10-16T20:14:41;19.85;;;17.75;;
39102;SDS011;24847;48.218;16.414;2022-10-16T20:19:44;18.85;;;16.90;;
39102;SDS011;24847;48.218;16.414;2022-10-16T20:24:49;18.75;;;16.75;;
39102;SDS011;24847;48.218;16.414;2022-10-16T20:29:55;22.85;;;19.15;;
39102;SDS011;24847;48.218;16.414;2022-10-16T20:34:58;33.47;;;27.98;;
39102;SDS011;24847;48.218;16.414;2022-10-16T20:40:00;25.60;;;21.30;;
39102;SDS011;24847;48.218;16.414;2022-10-16T20:45:08;24.23;;;21.63;;
39102;SDS011;24847;48.218;16.414;2022-10-16T20:50:12;24.35;;;21.73;;
39102;SDS011;24847;48.218;16.414;2022-10-16T20:55:15;22.02;;;19.67;;
39102;SDS011;24847;48.218;16.414;2022-10-16T21:00:20;21.63;;;18.83;;
39102;SDS011;24847;48.218;16.414;2022-10-16T21:05:26;20.88;;;17.60;;
39102;SDS011;24847;48.218;16.414;2022-10-16T21:10:37;20.23;;;17.70;;
39102;SDS011;24847;48.218;16.414;2022-10-16T21:15:41;20.50;;;18.27;;
39102;SDS011;24847;48.218;16.414;2022-10-16T21:20:43;19.67;;;17.63;;
39102;SDS011;24847;48.218;16.414;2022-10-16T21:25:49;20.35;;;18.23;;
39102;SDS011;24847;48.218;16.414;2022-10-16T21:30:54;20.27;;;18.10;;
39102;SDS011;24847;48.218;16.414;2022-10-16T21:36:10;20.35;;;17.48;;
39102;SDS011;24847;48.218;16.414;2022-10-16T21:41:15;21.33;;;18.35;;
39102;SDS011;24847;48.218;16.414;2022-10-16T21:46:27;20.77;;;17.35;;
39102;SDS011;24847;48.218;16.414;2022-10-16T21:51:37;21.38;;;18.73;;
39102;SDS011;24847;48.218;16.414;2022-10-16T21:56:41;20.52;;;17.13;;
39102;SDS011;24847;48.218;16.414;2022-10-16T22:01:51;21.75;;;18.33;;
39102;SDS011;24847;48.218;16.414;2022-10-16T22:06:54;19.02;;;17.00;;
39102;SDS011;24847;48.218;16.414;2022-10-16T22:12:01;20.50;;;17.85;;
39102;SDS011;24847;48.218;16.414;2022-10-16T22:17:12;20.93;;;18.27;;
39102;SDS011;24847;48.218;16.414;2022-10-16T22:22:20;21.90;;;18.33;;
39102;SDS011;24847;48.218;16.414;2022-10-16T22:27:24;22.25;;;19.80;;
39102;SDS011;24847;48.218;16.414;2022-10-16T22:32:27;42.78;;;37.78;;
39102;SDS011;24847;48.218;16.414;2022-10-16T22:37:32;24.23;;;21.33;;
39102;SDS011;24847;48.218;16.414;2022-10-16T22:42:36;21.08;;;18.83;;
39102;SDS011;24847;48.218;16.414;2022-10-16T22:47:40;22.73;;;19.00;;
39102;SDS011;24847;48.218;16.414;2022-10-16T22:52:42;21.90;;;19.10;;
39102;SDS011;24847;48.218;16.414;2022-10-16T22:57:47;22.05;;;19.27;;
39102;SDS011;24847;48.218;16.414;2022-10-16T23:02:57;21.73;;;19.35;;
39102;SDS011;24847;48.218;16.414;2022-10-16T23:07:59;21.10;;;18.80;;
39102;SDS011;24847;48.218;16.414;2022-10-16T23:13:02;21.38;;;19.02;;
39102;SDS011;24847;48.218;16.414;2022-10-16T23:18:06;21.52;;;19.20;;
39102;SDS011;24847;48.218;16.414;2022-10-16T23:23:09;22.45;;;18.98;;
39102;SDS011;24847;48.218;16.414;2022-10-16T23:28:12;21.83;;;19.40;;
39102;SDS011;24847;48.218;16.414;2022-10-16T23:33:16;24.17;;;21.10;;
39102;SDS011;24847;48.218;16.414;2022-10-16T23:38:18;22.15;;;19.20;;
39102;SDS011;24847;48.218;16.414;2022-10-16T23:43:20;22.23;;;19.27;;
39102;SDS011;24847;48.218;16.414;2022-10-16T23:48:24;21.95;;;19.58;;
39102;SDS011;24847;48.218;16.414;2022-10-16T23:53:26;22.45;;;19.33;;
39102;SDS011;24847;48.218;16.414;2022-10-16T23:58:29;22.48;;;19.08;;
